sensor_id;sensor_type;location;lat;lon;timestamp;P1;durP1;ratioP1;P2;durP2;ratioP2
49177;SDS011;35016;55.674;37.468;2022-09-09T03:33:32;4.60;;;1.50;;
49177;SDS011;35016;55.674;37.468;2022-09-09T03:44:53;5.55;;;1.95;;
49177;SDS011;35016;55.674;37.468;2022-09-09T04:02:03;7.07;;;2.33;;
49177;SDS011;35016;55.674;37.468;2022-09-09T04:09:30;4.47;;;1.77;;
49177;SDS011;35016;55.674;37.468;2022-09-09T04:12:33;4.88;;;1.95;;
49177;SDS011;35016;55.674;37.468;2022-09-09T04:15:02;4.53;;;1.77;;
49177;SDS011;35016;55.674;37.468;2022-09-09T04:17:43;4.80;;;1.83;;
49177;SDS011;35016;55.674;37.468;2022-09-09T04:20:10;5.80;;;2.13;;
49177;SDS011;35016;55.674;37.468;2022-09-09T04:22:41;5.38;;;1.90;;
49177;SDS011;35016;55.674;37.468;2022-09-09T04:25:08;6.35;;;2.15;;
49177;SDS011;35016;55.674;37.468;2022-09-09T04:27:35;4.82;;;1.65;;
49177;SDS011;35016;55.674;37.468;2022-09-09T04:30:03;6.18;;;1.63;;
49177;SDS011;35016;55.674;37.468;2022-09-09T04:32:32;4.22;;;1.85;;
49177;SDS011;35016;55.674;37.468;2022-09-09T04:35:09;4.78;;;1.80;;
49177;SDS011;35016;55.674;37.468;2022-09-09T04:37:39;5.07;;;1.42;;
49177;SDS011;35016;55.674;37.468;2022-09-09T04:40:07;5.70;;;2.00;;
49177;SDS011;35016;55.674;37.468;2022-09-09T04:42:37;4.85;;;1.77;;
49177;SDS011;35016;55.674;37.468;2022-09-09T04:45:34;7.50;;;2.30;;
49177;SDS011;35016;55.674;37.468;2022-09-09T04:48:01;2.92;;;1.13;;
49177;SDS011;35016;55.674;37.468;2022-09-09T04:50:36;4.88;;;1.77;;
49177;SDS011;35016;55.674;37.468;2022-09-09T04:53:10;6.55;;;1.70;;
49177;SDS011;35016;55.674;37.468;2022-09-09T04:59:23;3.67;;;1.42;;
49177;SDS011;35016;55.674;37.468;2022-09-09T05:04:49;5.43;;;2.15;;
49177;SDS011;35016;55.674;37.468;2022-09-09T06:10:06;6.18;;;1.77;;
49177;SDS011;35016;55.674;37.468;2022-09-09T06:27:02;4.75;;;1.50;;
49177;SDS011;35016;55.674;37.468;2022-09-09T06:29:34;4.75;;;1.60;;
49177;SDS011;35016;55.674;37.468;2022-09-09T06:32:02;7.18;;;2.35;;
49177;SDS011;35016;55.674;37.468;2022-09-09T06:34:33;4.10;;;1.20;;
49177;SDS011;35016;55.674;37.468;2022-09-09T06:37:01;4.55;;;1.48;;
49177;SDS011;35016;55.674;37.468;2022-09-09T06:42:02;3.60;;;1.00;;
49177;SDS011;35016;55.674;37.468;2022-09-09T06:44:45;4.85;;;1.42;;
49177;SDS011;35016;55.674;37.468;2022-09-09T06:47:20;4.40;;;1.20;;
49177;SDS011;35016;55.674;37.468;2022-09-09T06:49:48;4.00;;;1.40;;
49177;SDS011;35016;55.674;37.468;2022-09-09T06:52:15;3.90;;;1.10;;
49177;SDS011;35016;55.674;37.468;2022-09-09T06:54:43;2.63;;;1.08;;
49177;SDS011;35016;55.674;37.468;2022-09-09T06:57:13;5.45;;;1.30;;
49177;SDS011;35016;55.674;37.468;2022-09-09T07:00:01;4.65;;;1.42;;
49177;SDS011;35016;55.674;37.468;2022-09-09T07:02:29;3.30;;;1.40;;
49177;SDS011;35016;55.674;37.468;2022-09-09T07:04:57;4.50;;;1.77;;
49177;SDS011;35016;55.674;37.468;2022-09-09T07:07:25;4.78;;;1.40;;
49177;SDS011;35016;55.674;37.468;2022-09-09T07:09:57;7.82;;;1.80;;
49177;SDS011;35016;55.674;37.468;2022-09-09T07:12:24;6.25;;;2.00;;
49177;SDS011;35016;55.674;37.468;2022-09-09T07:14:56;3.03;;;1.00;;
49177;SDS011;35016;55.674;37.468;2022-09-09T07:17:24;3.17;;;1.13;;
49177;SDS011;35016;55.674;37.468;2022-09-09T07:19:51;2.63;;;0.98;;
49177;SDS011;35016;55.674;37.468;2022-09-09T07:22:20;2.03;;;0.73;;
49177;SDS011;35016;55.674;37.468;2022-09-09T07:24:47;4.25;;;1.48;;
49177;SDS011;35016;55.674;37.468;2022-09-09T07:27:18;3.22;;;1.05;;
49177;SDS011;35016;55.674;37.468;2022-09-09T07:29:49;3.85;;;1.50;;
49177;SDS011;35016;55.674;37.468;2022-09-09T07:32:16;2.90;;;1.17;;
49177;SDS011;35016;55.674;37.468;2022-09-09T07:34:44;4.90;;;1.42;;
49177;SDS011;35016;55.674;37.468;2022-09-09T07:37:15;3.63;;;1.20;;
49177;SDS011;35016;55.674;37.468;2022-09-09T07:39:44;4.57;;;1.30;;
49177;SDS011;35016;55.674;37.468;2022-09-09T07:42:12;2.13;;;0.65;;
49177;SDS011;35016;55.674;37.468;2022-09-09T07:44:40;2.38;;;0.77;;
49177;SDS011;35016;55.674;37.468;2022-09-09T07:47:10;3.13;;;0.85;;
49177;SDS011;35016;55.674;37.468;2022-09-09T07:49:42;3.78;;;1.40;;
49177;SDS011;35016;55.674;37.468;2022-09-09T07:52:09;5.72;;;1.33;;
49177;SDS011;35016;55.674;37.468;2022-09-09T07:54:48;3.05;;;1.00;;
49177;SDS011;35016;55.674;37.468;2022-09-09T07:57:16;2.25;;;0.90;;
49177;SDS011;35016;55.674;37.468;2022-09-09T07:59:46;4.63;;;1.52;;
49177;SDS011;35016;55.674;37.468;2022-09-09T08:02:13;2.88;;;0.95;;
49177;SDS011;35016;55.674;37.468;2022-09-09T08:04:41;2.85;;;1.15;;
49177;SDS011;35016;55.674;37.468;2022-09-09T08:07:09;3.58;;;1.50;;
49177;SDS011;35016;55.674;37.468;2022-09-09T08:09:55;4.85;;;1.42;;
49177;SDS011;35016;55.674;37.468;2022-09-09T08:12:29;3.35;;;1.30;;
49177;SDS011;35016;55.674;37.468;2022-09-09T08:15:17;2.75;;;0.90;;
49177;SDS011;35016;55.674;37.468;2022-09-09T08:17:45;2.30;;;0.73;;
49177;SDS011;35016;55.674;37.468;2022-09-09T08:20:12;4.38;;;1.27;;
49177;SDS011;35016;55.674;37.468;2022-09-09T08:22:40;3.45;;;1.17;;
49177;SDS011;35016;55.674;37.468;2022-09-09T08:25:08;1.80;;;0.60;;
49177;SDS011;35016;55.674;37.468;2022-09-09T08:27:37;2.75;;;1.00;;
49177;SDS011;35016;55.674;37.468;2022-09-09T08:30:05;2.17;;;0.93;;
49177;SDS011;35016;55.674;37.468;2022-09-09T08:32:33;1.40;;;0.60;;
49177;SDS011;35016;55.674;37.468;2022-09-09T08:35:01;2.55;;;0.68;;
49177;SDS011;35016;55.674;37.468;2022-09-09T08:37:34;4.03;;;1.40;;
49177;SDS011;35016;55.674;37.468;2022-09-09T08:40:01;1.40;;;0.63;;
49177;SDS011;35016;55.674;37.468;2022-09-09T08:42:32;2.80;;;0.80;;
49177;SDS011;35016;55.674;37.468;2022-09-09T08:45:09;4.50;;;1.30;;
49177;SDS011;35016;55.674;37.468;2022-09-09T08:50:38;2.67;;;0.70;;
49177;SDS011;35016;55.674;37.468;2022-09-09T08:55:58;2.63;;;0.82;;
49177;SDS011;35016;55.674;37.468;2022-09-09T08:58:56;2.33;;;0.85;;
49177;SDS011;35016;55.674;37.468;2022-09-09T09:07:21;5.07;;;0.90;;
49177;SDS011;35016;55.674;37.468;2022-09-09T09:13:19;2.72;;;1.00;;
49177;SDS011;35016;55.674;37.468;2022-09-09T09:16:00;2.88;;;1.00;;
49177;SDS011;35016;55.674;37.468;2022-09-09T09:18:37;1.98;;;0.65;;
49177;SDS011;35016;55.674;37.468;2022-09-09T09:21:16;2.92;;;0.75;;
49177;SDS011;35016;55.674;37.468;2022-09-09T09:23:58;2.08;;;0.60;;
49177;SDS011;35016;55.674;37.468;2022-09-09T09:26:31;5.15;;;0.90;;
49177;SDS011;35016;55.674;37.468;2022-09-09T09:29:11;1.15;;;0.50;;
49177;SDS011;35016;55.674;37.468;2022-09-09T09:31:51;3.20;;;1.00;;
49177;SDS011;35016;55.674;37.468;2022-09-09T09:34:22;5.18;;;1.67;;
49177;SDS011;35016;55.674;37.468;2022-09-09T09:36:58;3.83;;;1.02;;
49177;SDS011;35016;55.674;37.468;2022-09-09T09:39:33;4.70;;;1.20;;
49177;SDS011;35016;55.674;37.468;2022-09-09T09:42:28;5.07;;;1.08;;
49177;SDS011;35016;55.674;37.468;2022-09-09T09:44:56;4.85;;;1.40;;
49177;SDS011;35016;55.674;37.468;2022-09-09T09:47:35;3.00;;;1.10;;
49177;SDS011;35016;55.674;37.468;2022-09-09T09:50:17;3.00;;;1.13;;
49177;SDS011;35016;55.674;37.468;2022-09-09T09:52:55;2.50;;;0.90;;
49177;SDS011;35016;55.674;37.468;2022-09-09T09:55:25;3.42;;;1.08;;
49177;SDS011;35016;55.674;37.468;2022-09-09T09:58:01;2.25;;;0.88;;
49177;SDS011;35016;55.674;37.468;2022-09-09T10:00:36;4.65;;;1.42;;
49177;SDS011;35016;55.674;37.468;2022-09-09T10:03:34;1.63;;;0.52;;
49177;SDS011;35016;55.674;37.468;2022-09-09T10:06:07;2.38;;;0.93;;
49177;SDS011;35016;55.674;37.468;2022-09-09T10:08:43;2.25;;;0.70;;
49177;SDS011;35016;55.674;37.468;2022-09-09T10:11:21;2.83;;;1.23;;
49177;SDS011;35016;55.674;37.468;2022-09-09T10:20:00;3.92;;;1.13;;
49177;SDS011;35016;55.674;37.468;2022-09-09T10:22:36;1.88;;;0.77;;
49177;SDS011;35016;55.674;37.468;2022-09-09T10:25:18;3.75;;;0.88;;
49177;SDS011;35016;55.674;37.468;2022-09-09T10:30:55;1.63;;;0.85;;
49177;SDS011;35016;55.674;37.468;2022-09-09T10:33:33;4.47;;;1.13;;
49177;SDS011;35016;55.674;37.468;2022-09-09T10:36:20;3.95;;;1.25;;
49177;SDS011;35016;55.674;37.468;2022-09-09T10:39:01;4.25;;;1.10;;
49177;SDS011;35016;55.674;37.468;2022-09-09T10:41:46;2.65;;;0.93;;
49177;SDS011;35016;55.674;37.468;2022-09-09T10:47:17;2.35;;;0.75;;
49177;SDS011;35016;55.674;37.468;2022-09-09T10:56:15;2.22;;;0.90;;
49177;SDS011;35016;55.674;37.468;2022-09-09T11:05:02;2.75;;;1.08;;
49177;SDS011;35016;55.674;37.468;2022-09-09T11:11:32;4.43;;;1.38;;
49177;SDS011;35016;55.674;37.468;2022-09-09T11:17:03;3.35;;;1.00;;
49177;SDS011;35016;55.674;37.468;2022-09-09T11:19:38;1.95;;;0.82;;
49177;SDS011;35016;55.674;37.468;2022-09-09T11:22:27;3.28;;;0.90;;
49177;SDS011;35016;55.674;37.468;2022-09-09T11:25:01;4.45;;;1.63;;
49177;SDS011;35016;55.674;37.468;2022-09-09T11:30:51;5.97;;;1.92;;
49177;SDS011;35016;55.674;37.468;2022-09-09T11:36:30;5.38;;;1.30;;
49177;SDS011;35016;55.674;37.468;2022-09-09T11:41:38;5.63;;;1.92;;
49177;SDS011;35016;55.674;37.468;2022-09-09T11:44:12;4.60;;;1.58;;
49177;SDS011;35016;55.674;37.468;2022-09-09T11:46:44;5.28;;;1.25;;
49177;SDS011;35016;55.674;37.468;2022-09-09T11:49:25;3.80;;;1.30;;
49177;SDS011;35016;55.674;37.468;2022-09-09T11:52:12;3.00;;;0.88;;
49177;SDS011;35016;55.674;37.468;2022-09-09T11:54:49;2.67;;;1.08;;
49177;SDS011;35016;55.674;37.468;2022-09-09T11:57:24;2.90;;;1.10;;
49177;SDS011;35016;55.674;37.468;2022-09-09T12:00:01;2.50;;;0.95;;
49177;SDS011;35016;55.674;37.468;2022-09-09T12:02:37;2.90;;;0.63;;
49177;SDS011;35016;55.674;37.468;2022-09-09T12:05:18;2.75;;;1.13;;
49177;SDS011;35016;55.674;37.468;2022-09-09T12:07:51;2.42;;;0.77;;
49177;SDS011;35016;55.674;37.468;2022-09-09T12:10:26;2.33;;;0.93;;
49177;SDS011;35016;55.674;37.468;2022-09-09T12:13:07;1.58;;;0.70;;
49177;SDS011;35016;55.674;37.468;2022-09-09T12:16:00;2.50;;;0.90;;
49177;SDS011;35016;55.674;37.468;2022-09-09T12:26:22;5.03;;;1.48;;
49177;SDS011;35016;55.674;37.468;2022-09-09T12:32:20;2.20;;;0.75;;
49177;SDS011;35016;55.674;37.468;2022-09-09T12:34:53;3.47;;;0.73;;
49177;SDS011;35016;55.674;37.468;2022-09-09T12:40:30;1.48;;;0.60;;
49177;SDS011;35016;55.674;37.468;2022-09-09T12:43:14;1.92;;;0.85;;
49177;SDS011;35016;55.674;37.468;2022-09-09T12:45:49;3.97;;;1.33;;
49177;SDS011;35016;55.674;37.468;2022-09-09T12:48:26;3.15;;;1.08;;
49177;SDS011;35016;55.674;37.468;2022-09-09T12:51:01;4.90;;;1.00;;
49177;SDS011;35016;55.674;37.468;2022-09-09T12:53:34;1.80;;;0.80;;
49177;SDS011;35016;55.674;37.468;2022-09-09T12:56:05;1.95;;;0.82;;
49177;SDS011;35016;55.674;37.468;2022-09-09T12:58:38;3.00;;;0.93;;
49177;SDS011;35016;55.674;37.468;2022-09-09T13:01:17;5.00;;;0.95;;
49177;SDS011;35016;55.674;37.468;2022-09-09T13:03:56;3.17;;;0.80;;
49177;SDS011;35016;55.674;37.468;2022-09-09T13:06:29;2.72;;;0.90;;
49177;SDS011;35016;55.674;37.468;2022-09-09T13:08:58;3.55;;;1.33;;
49177;SDS011;35016;55.674;37.468;2022-09-09T13:11:34;3.60;;;1.25;;
49177;SDS011;35016;55.674;37.468;2022-09-09T13:14:18;3.53;;;1.25;;
49177;SDS011;35016;55.674;37.468;2022-09-09T13:16:59;3.28;;;0.93;;
49177;SDS011;35016;55.674;37.468;2022-09-09T13:19:31;3.55;;;1.23;;
49177;SDS011;35016;55.674;37.468;2022-09-09T13:22:12;3.17;;;0.85;;
49177;SDS011;35016;55.674;37.468;2022-09-09T13:24:41;2.47;;;0.73;;
49177;SDS011;35016;55.674;37.468;2022-09-09T13:27:28;4.97;;;1.13;;
49177;SDS011;35016;55.674;37.468;2022-09-09T13:29:58;2.00;;;0.80;;
49177;SDS011;35016;55.674;37.468;2022-09-09T13:32:29;3.63;;;1.20;;
49177;SDS011;35016;55.674;37.468;2022-09-09T13:34:59;5.65;;;1.58;;
49177;SDS011;35016;55.674;37.468;2022-09-09T13:40:01;5.03;;;0.90;;
49177;SDS011;35016;55.674;37.468;2022-09-09T13:42:31;2.45;;;0.80;;
49177;SDS011;35016;55.674;37.468;2022-09-09T13:45:02;3.88;;;1.13;;
49177;SDS011;35016;55.674;37.468;2022-09-09T13:47:32;5.28;;;1.27;;
49177;SDS011;35016;55.674;37.468;2022-09-09T13:52:51;5.05;;;0.95;;
49177;SDS011;35016;55.674;37.468;2022-09-09T13:55:21;4.47;;;0.95;;
49177;SDS011;35016;55.674;37.468;2022-09-09T14:00:30;3.00;;;0.82;;
49177;SDS011;35016;55.674;37.468;2022-09-09T14:02:59;3.60;;;1.27;;
49177;SDS011;35016;55.674;37.468;2022-09-09T14:05:30;3.08;;;1.13;;
49177;SDS011;35016;55.674;37.468;2022-09-09T14:07:59;5.43;;;1.40;;
49177;SDS011;35016;55.674;37.468;2022-09-09T14:10:29;3.85;;;0.82;;
49177;SDS011;35016;55.674;37.468;2022-09-09T14:12:56;2.85;;;0.77;;
49177;SDS011;35016;55.674;37.468;2022-09-09T14:15:23;4.93;;;1.45;;
49177;SDS011;35016;55.674;37.468;2022-09-09T14:17:50;5.93;;;1.10;;
49177;SDS011;35016;55.674;37.468;2022-09-09T14:20:18;4.80;;;0.88;;
49177;SDS011;35016;55.674;37.468;2022-09-09T14:22:47;3.40;;;1.00;;
49177;SDS011;35016;55.674;37.468;2022-09-09T14:25:14;4.65;;;1.10;;
49177;SDS011;35016;55.674;37.468;2022-09-09T14:27:41;4.35;;;1.08;;
49177;SDS011;35016;55.674;37.468;2022-09-09T14:30:09;4.72;;;1.02;;
49177;SDS011;35016;55.674;37.468;2022-09-09T14:32:36;5.50;;;1.58;;
49177;SDS011;35016;55.674;37.468;2022-09-09T14:35:03;3.85;;;1.17;;
49177;SDS011;35016;55.674;37.468;2022-09-09T14:37:30;5.55;;;1.13;;
49177;SDS011;35016;55.674;37.468;2022-09-09T14:39:58;6.38;;;1.63;;
49177;SDS011;35016;55.674;37.468;2022-09-09T14:42:25;4.88;;;1.48;;
49177;SDS011;35016;55.674;37.468;2022-09-09T14:44:53;7.47;;;1.95;;
49177;SDS011;35016;55.674;37.468;2022-09-09T14:47:20;5.10;;;1.60;;
49177;SDS011;35016;55.674;37.468;2022-09-09T14:49:47;4.85;;;1.50;;
49177;SDS011;35016;55.674;37.468;2022-09-09T14:52:16;5.30;;;1.92;;
49177;SDS011;35016;55.674;37.468;2022-09-09T14:54:43;4.22;;;1.50;;
49177;SDS011;35016;55.674;37.468;2022-09-09T14:57:10;7.22;;;2.15;;
49177;SDS011;35016;55.674;37.468;2022-09-09T14:59:37;6.10;;;2.17;;
49177;SDS011;35016;55.674;37.468;2022-09-09T15:02:04;7.68;;;2.63;;
49177;SDS011;35016;55.674;37.468;2022-09-09T15:04:32;6.80;;;2.33;;
49177;SDS011;35016;55.674;37.468;2022-09-09T15:06:59;5.75;;;2.15;;
49177;SDS011;35016;55.674;37.468;2022-09-09T15:09:26;6.15;;;2.22;;
49177;SDS011;35016;55.674;37.468;2022-09-09T15:11:53;5.70;;;2.13;;
49177;SDS011;35016;55.674;37.468;2022-09-09T15:14:20;5.95;;;1.98;;
49177;SDS011;35016;55.674;37.468;2022-09-09T15:16:50;8.70;;;2.38;;
49177;SDS011;35016;55.674;37.468;2022-09-09T15:19:18;6.75;;;1.90;;
49177;SDS011;35016;55.674;37.468;2022-09-09T15:21:45;6.28;;;2.35;;
49177;SDS011;35016;55.674;37.468;2022-09-09T15:24:13;7.30;;;2.30;;
49177;SDS011;35016;55.674;37.468;2022-09-09T15:26:40;6.45;;;1.90;;
49177;SDS011;35016;55.674;37.468;2022-09-09T15:29:07;4.80;;;1.70;;
49177;SDS011;35016;55.674;37.468;2022-09-09T15:31:35;5.68;;;2.00;;
49177;SDS011;35016;55.674;37.468;2022-09-09T15:34:03;5.85;;;1.58;;
49177;SDS011;35016;55.674;37.468;2022-09-09T15:36:43;4.85;;;1.52;;
49177;SDS011;35016;55.674;37.468;2022-09-09T15:39:15;4.95;;;1.77;;
49177;SDS011;35016;55.674;37.468;2022-09-09T15:41:44;6.90;;;1.52;;
49177;SDS011;35016;55.674;37.468;2022-09-09T15:44:16;2.67;;;1.10;;
49177;SDS011;35016;55.674;37.468;2022-09-09T15:46:44;5.05;;;2.13;;
49177;SDS011;35016;55.674;37.468;2022-09-09T15:49:16;3.78;;;1.20;;
49177;SDS011;35016;55.674;37.468;2022-09-09T15:51:45;6.38;;;2.08;;
49177;SDS011;35016;55.674;37.468;2022-09-09T15:54:15;4.50;;;1.80;;
49177;SDS011;35016;55.674;37.468;2022-09-09T15:56:49;7.60;;;2.30;;
49177;SDS011;35016;55.674;37.468;2022-09-09T15:59:26;8.70;;;2.88;;
49177;SDS011;35016;55.674;37.468;2022-09-09T16:01:55;9.77;;;4.28;;
49177;SDS011;35016;55.674;37.468;2022-09-09T16:04:23;9.95;;;2.80;;
49177;SDS011;35016;55.674;37.468;2022-09-09T16:06:59;10.50;;;3.28;;
49177;SDS011;35016;55.674;37.468;2022-09-09T16:09:28;7.93;;;3.03;;
49177;SDS011;35016;55.674;37.468;2022-09-09T16:11:57;6.30;;;2.33;;
49177;SDS011;35016;55.674;37.468;2022-09-09T16:14:32;6.85;;;2.40;;
49177;SDS011;35016;55.674;37.468;2022-09-09T16:17:03;8.05;;;2.78;;
49177;SDS011;35016;55.674;37.468;2022-09-09T16:19:30;6.85;;;2.92;;
49177;SDS011;35016;55.674;37.468;2022-09-09T16:21:58;5.82;;;1.70;;
49177;SDS011;35016;55.674;37.468;2022-09-09T16:24:25;7.72;;;3.08;;
49177;SDS011;35016;55.674;37.468;2022-09-09T16:26:53;7.75;;;2.67;;
49177;SDS011;35016;55.674;37.468;2022-09-09T16:29:25;6.70;;;2.22;;
49177;SDS011;35016;55.674;37.468;2022-09-09T16:32:04;6.28;;;1.77;;
49177;SDS011;35016;55.674;37.468;2022-09-09T16:34:44;4.63;;;1.65;;
49177;SDS011;35016;55.674;37.468;2022-09-09T16:37:13;9.75;;;1.98;;
49177;SDS011;35016;55.674;37.468;2022-09-09T16:39:42;5.45;;;2.47;;
49177;SDS011;35016;55.674;37.468;2022-09-09T16:42:15;4.22;;;1.38;;
49177;SDS011;35016;55.674;37.468;2022-09-09T16:44:47;5.57;;;1.67;;
49177;SDS011;35016;55.674;37.468;2022-09-09T16:47:18;7.90;;;2.45;;
49177;SDS011;35016;55.674;37.468;2022-09-09T16:49:55;6.22;;;2.72;;
49177;SDS011;35016;55.674;37.468;2022-09-09T16:52:33;6.40;;;1.98;;
49177;SDS011;35016;55.674;37.468;2022-09-09T16:55:06;8.63;;;2.60;;
49177;SDS011;35016;55.674;37.468;2022-09-09T16:57:34;6.78;;;2.17;;
49177;SDS011;35016;55.674;37.468;2022-09-09T17:00:13;4.93;;;1.63;;
49177;SDS011;35016;55.674;37.468;2022-09-09T17:02:44;5.63;;;2.22;;
49177;SDS011;35016;55.674;37.468;2022-09-09T17:05:15;5.45;;;1.58;;
49177;SDS011;35016;55.674;37.468;2022-09-09T17:08:08;8.00;;;2.65;;
49177;SDS011;35016;55.674;37.468;2022-09-09T17:10:41;5.53;;;1.85;;
49177;SDS011;35016;55.674;37.468;2022-09-09T17:13:20;7.22;;;1.75;;
49177;SDS011;35016;55.674;37.468;2022-09-09T17:15:51;6.10;;;2.40;;
49177;SDS011;35016;55.674;37.468;2022-09-09T17:18:31;5.20;;;2.08;;
49177;SDS011;35016;55.674;37.468;2022-09-09T17:21:03;7.72;;;2.17;;
49177;SDS011;35016;55.674;37.468;2022-09-09T17:23:37;5.70;;;2.47;;
49177;SDS011;35016;55.674;37.468;2022-09-09T17:26:08;11.00;;;2.42;;
49177;SDS011;35016;55.674;37.468;2022-09-09T17:28:38;5.55;;;2.00;;
49177;SDS011;35016;55.674;37.468;2022-09-09T17:31:16;6.60;;;2.10;;
49177;SDS011;35016;55.674;37.468;2022-09-09T17:33:49;10.07;;;2.80;;
49177;SDS011;35016;55.674;37.468;2022-09-09T17:36:22;6.35;;;2.42;;
49177;SDS011;35016;55.674;37.468;2022-09-09T17:39:09;8.90;;;2.15;;
49177;SDS011;35016;55.674;37.468;2022-09-09T17:41:47;5.72;;;2.20;;
49177;SDS011;35016;55.674;37.468;2022-09-09T17:44:22;8.48;;;2.95;;
49177;SDS011;35016;55.674;37.468;2022-09-09T17:47:10;12.50;;;3.60;;
49177;SDS011;35016;55.674;37.468;2022-09-09T17:53:21;8.35;;;3.42;;
49177;SDS011;35016;55.674;37.468;2022-09-09T17:55:51;17.13;;;3.92;;
49177;SDS011;35016;55.674;37.468;2022-09-09T17:58:21;13.80;;;8.32;;
49177;SDS011;35016;55.674;37.468;2022-09-09T18:01:00;9.85;;;4.22;;
49177;SDS011;35016;55.674;37.468;2022-09-09T18:03:35;9.80;;;3.78;;
49177;SDS011;35016;55.674;37.468;2022-09-09T18:06:07;8.23;;;2.55;;
49177;SDS011;35016;55.674;37.468;2022-09-09T18:08:39;9.48;;;2.88;;
49177;SDS011;35016;55.674;37.468;2022-09-09T18:11:18;11.07;;;3.47;;
49177;SDS011;35016;55.674;37.468;2022-09-09T18:17:00;7.68;;;2.47;;
49177;SDS011;35016;55.674;37.468;2022-09-09T18:20:04;7.47;;;2.78;;
49177;SDS011;35016;55.674;37.468;2022-09-09T18:22:37;11.57;;;3.28;;
49177;SDS011;35016;55.674;37.468;2022-09-09T18:25:08;7.93;;;2.72;;
49177;SDS011;35016;55.674;37.468;2022-09-09T18:27:41;11.15;;;3.78;;
49177;SDS011;35016;55.674;37.468;2022-09-09T18:30:11;8.75;;;2.85;;
49177;SDS011;35016;55.674;37.468;2022-09-09T18:32:48;9.30;;;3.75;;
49177;SDS011;35016;55.674;37.468;2022-09-09T18:35:36;11.15;;;4.40;;
49177;SDS011;35016;55.674;37.468;2022-09-09T18:38:03;9.02;;;4.13;;
49177;SDS011;35016;55.674;37.468;2022-09-09T18:40:40;8.45;;;3.72;;
49177;SDS011;35016;55.674;37.468;2022-09-09T18:43:08;12.05;;;5.03;;
49177;SDS011;35016;55.674;37.468;2022-09-09T18:45:42;12.00;;;5.63;;
49177;SDS011;35016;55.674;37.468;2022-09-09T18:48:10;8.90;;;4.40;;
49177;SDS011;35016;55.674;37.468;2022-09-09T18:50:38;10.88;;;4.82;;
49177;SDS011;35016;55.674;37.468;2022-09-09T18:53:08;10.82;;;4.50;;
49177;SDS011;35016;55.674;37.468;2022-09-09T18:55:37;10.48;;;3.45;;
49177;SDS011;35016;55.674;37.468;2022-09-09T18:58:06;10.88;;;4.78;;
49177;SDS011;35016;55.674;37.468;2022-09-09T19:00:47;12.10;;;4.22;;
49177;SDS011;35016;55.674;37.468;2022-09-09T19:03:17;10.20;;;4.13;;
49177;SDS011;35016;55.674;37.468;2022-09-09T19:09:56;9.10;;;3.17;;
49177;SDS011;35016;55.674;37.468;2022-09-09T19:12:23;11.05;;;3.38;;
49177;SDS011;35016;55.674;37.468;2022-09-09T19:14:53;9.35;;;4.00;;
49177;SDS011;35016;55.674;37.468;2022-09-09T19:18:04;9.25;;;4.22;;
49177;SDS011;35016;55.674;37.468;2022-09-09T19:36:45;11.43;;;6.30;;
49177;SDS011;35016;55.674;37.468;2022-09-09T19:39:58;13.32;;;6.47;;
49177;SDS011;35016;55.674;37.468;2022-09-09T19:43:33;11.40;;;7.53;;
49177;SDS011;35016;55.674;37.468;2022-09-09T19:47:18;13.68;;;7.45;;
49177;SDS011;35016;55.674;37.468;2022-09-09T19:52:55;13.85;;;8.07;;
49177;SDS011;35016;55.674;37.468;2022-09-09T19:55:33;16.45;;;9.52;;
49177;SDS011;35016;55.674;37.468;2022-09-09T19:58:07;16.75;;;7.70;;
49177;SDS011;35016;55.674;37.468;2022-09-09T20:00:38;17.00;;;7.85;;
49177;SDS011;35016;55.674;37.468;2022-09-09T20:03:18;13.05;;;7.70;;
49177;SDS011;35016;55.674;37.468;2022-09-09T20:05:46;11.68;;;6.82;;
49177;SDS011;35016;55.674;37.468;2022-09-09T20:08:34;20.58;;;7.60;;
49177;SDS011;35016;55.674;37.468;2022-09-09T20:11:03;11.65;;;6.10;;
49177;SDS011;35016;55.674;37.468;2022-09-09T20:13:51;14.40;;;7.18;;
49177;SDS011;35016;55.674;37.468;2022-09-09T20:16:20;14.27;;;6.75;;
49177;SDS011;35016;55.674;37.468;2022-09-09T20:18:52;14.02;;;7.13;;
49177;SDS011;35016;55.674;37.468;2022-09-09T20:21:23;13.43;;;6.53;;
49177;SDS011;35016;55.674;37.468;2022-09-09T20:24:22;12.65;;;6.75;;
49177;SDS011;35016;55.674;37.468;2022-09-09T20:26:55;12.00;;;6.35;;
49177;SDS011;35016;55.674;37.468;2022-09-09T20:32:08;12.95;;;5.60;;
49177;SDS011;35016;55.674;37.468;2022-09-09T20:34:44;13.27;;;5.45;;
49177;SDS011;35016;55.674;37.468;2022-09-09T20:37:15;14.88;;;6.55;;
49177;SDS011;35016;55.674;37.468;2022-09-09T20:39:49;16.25;;;8.45;;
49177;SDS011;35016;55.674;37.468;2022-09-09T20:42:20;13.88;;;6.53;;
49177;SDS011;35016;55.674;37.468;2022-09-09T20:45:26;14.10;;;6.43;;
49177;SDS011;35016;55.674;37.468;2022-09-09T20:48:00;14.73;;;7.45;;
49177;SDS011;35016;55.674;37.468;2022-09-09T20:50:27;13.75;;;6.97;;
49177;SDS011;35016;55.674;37.468;2022-09-09T20:52:57;14.75;;;6.45;;
49177;SDS011;35016;55.674;37.468;2022-09-09T20:55:39;13.57;;;8.00;;
49177;SDS011;35016;55.674;37.468;2022-09-09T21:11:21;9.50;;;3.88;;
49177;SDS011;35016;55.674;37.468;2022-09-09T21:15:22;10.55;;;5.07;;
49177;SDS011;35016;55.674;37.468;2022-09-09T21:19:43;11.15;;;5.68;;
49177;SDS011;35016;55.674;37.468;2022-09-09T21:27:50;8.80;;;3.90;;
49177;SDS011;35016;55.674;37.468;2022-09-09T21:30:23;12.55;;;5.45;;
49177;SDS011;35016;55.674;37.468;2022-09-09T21:33:15;10.27;;;4.70;;
49177;SDS011;35016;55.674;37.468;2022-09-09T21:35:44;10.13;;;4.82;;
49177;SDS011;35016;55.674;37.468;2022-09-09T21:38:18;11.45;;;4.65;;
49177;SDS011;35016;55.674;37.468;2022-09-09T21:40:51;10.77;;;5.32;;
49177;SDS011;35016;55.674;37.468;2022-09-09T21:43:19;9.90;;;5.00;;
49177;SDS011;35016;55.674;37.468;2022-09-09T21:45:48;11.20;;;5.00;;
49177;SDS011;35016;55.674;37.468;2022-09-09T21:48:19;9.60;;;5.57;;
49177;SDS011;35016;55.674;37.468;2022-09-09T21:50:46;12.63;;;6.47;;
49177;SDS011;35016;55.674;37.468;2022-09-09T21:53:15;14.40;;;5.40;;
49177;SDS011;35016;55.674;37.468;2022-09-09T21:55:46;10.98;;;6.65;;
49177;SDS011;35016;55.674;37.468;2022-09-09T21:58:14;11.23;;;6.00;;
49177;SDS011;35016;55.674;37.468;2022-09-09T22:00:42;11.15;;;6.45;;
49177;SDS011;35016;55.674;37.468;2022-09-09T22:03:13;12.57;;;7.97;;
49177;SDS011;35016;55.674;37.468;2022-09-09T22:05:42;11.13;;;7.32;;
49177;SDS011;35016;55.674;37.468;2022-09-09T22:08:11;14.68;;;6.80;;
49177;SDS011;35016;55.674;37.468;2022-09-09T22:10:40;12.70;;;7.00;;
49177;SDS011;35016;55.674;37.468;2022-09-09T22:13:12;22.27;;;6.97;;
49177;SDS011;35016;55.674;37.468;2022-09-09T22:15:43;13.32;;;7.20;;
49177;SDS011;35016;55.674;37.468;2022-09-09T22:18:12;11.80;;;6.22;;
49177;SDS011;35016;55.674;37.468;2022-09-09T22:20:42;11.60;;;7.05;;
49177;SDS011;35016;55.674;37.468;2022-09-09T22:23:11;14.07;;;7.40;;
49177;SDS011;35016;55.674;37.468;2022-09-09T22:25:38;12.02;;;7.03;;
49177;SDS011;35016;55.674;37.468;2022-09-09T22:28:07;15.43;;;7.95;;
49177;SDS011;35016;55.674;37.468;2022-09-09T22:30:35;11.73;;;6.22;;
49177;SDS011;35016;55.674;37.468;2022-09-09T22:33:03;14.30;;;7.80;;
49177;SDS011;35016;55.674;37.468;2022-09-09T22:35:31;15.55;;;7.75;;
49177;SDS011;35016;55.674;37.468;2022-09-09T22:38:04;13.00;;;8.30;;
49177;SDS011;35016;55.674;37.468;2022-09-09T22:40:33;14.45;;;7.60;;
49177;SDS011;35016;55.674;37.468;2022-09-09T22:43:02;13.73;;;8.20;;
49177;SDS011;35016;55.674;37.468;2022-09-09T22:45:30;11.85;;;6.80;;
49177;SDS011;35016;55.674;37.468;2022-09-09T22:47:59;11.98;;;6.20;;